Abbott, New Mexico
Current Conditions -  °F | °C
As of 5:53 PM on Monday 20 Oct 2014 (Local Time) from KRTN Reporting Station
Clear Clear  
Wind Chill: 65°   Ceiling: Unl
Heat Index: 65°   Visibility: 10mi
Dew Point: 32°   Wind: 10mph
Humidity: 29%   Direction: 150°SSE
Pressure: 30.17"   Gusts: NA
Location:  36.3883°N, 104.381°W
Report Text: KRTN 202353Z AUTO 15009KT 10SM CLR 18/00 A3017 RMK AO2 SLP163 T01830000 10222 20183 55001
Loading
Personal Weather Stations






























Interactive Weather Map
Tropical Storm Tracking
New forecast layout! Learn more

10-Day Weather Forecast

Advertisements
Track Severe Weather on mobile